Time;durP1;ratioP1;P1;durP2;ratioP2;P2;SDS_P1;SDS_P2;PMS_P1;PMS_P2;Temp;Humidity;BMP_temperature;BMP_pressure;BME280_temperature;BME280_humidity;BME280_pressure;Samples;Min_cycle;Max_cycle;Signal;HPM_P1;HPM_P2
2022/11/23 06:06:10;;;;;;;13.48;7.03;;;;;;;7.18;100.00;99587.03;5011954;28;20458;-76
2022/11/23 06:08:35;;;;;;;17.80;6.68;;;;;;;7.32;100.00;99578.78;5011615;28;20045;-75
2022/11/23 06:11:01;;;;;;;19.30;6.68;;;;;;;7.33;100.00;99594.31;5017866;28;20147;-75
2022/11/23 06:13:26;;;;;;;13.40;6.63;;;;;;;7.34;100.00;99593.13;5083719;22;20053;-75
2022/11/23 06:15:52;;;;;;;15.68;7.55;;;;;;;7.25;100.00;99584.28;5050729;28;20538;-76
2022/11/23 06:18:17;;;;;;;15.05;7.93;;;;;;;7.26;100.00;99589.47;5037845;28;20149;-75
2022/11/23 06:20:42;;;;;;;14.25;6.82;;;;;;;7.34;100.00;99590.34;5039933;28;20652;-75
2022/11/23 06:23:08;;;;;;;16.52;6.50;;;;;;;7.34;100.00;99590.34;5044260;28;20029;-76
2022/11/23 06:25:33;;;;;;;16.35;6.95;;;;;;;7.40;100.00;99594.38;5039826;28;20399;-76
2022/11/23 06:28:00;;;;;;;13.82;7.03;;;;;;;7.46;100.00;99597.56;5037164;28;20518;-74
2022/11/23 06:30:27;;;;;;;16.15;5.95;;;;;;;7.39;100.00;99597.53;5037566;28;20502;-75
2022/11/23 06:32:53;;;;;;;14.85;5.85;;;;;;;7.46;100.00;99603.94;5042828;28;20048;-76
2022/11/23 06:35:18;;;;;;;13.35;6.75;;;;;;;7.42;100.00;99596.75;5041891;28;20435;-77
2022/11/23 06:37:44;;;;;;;14.77;7.22;;;;;;;7.50;100.00;99593.59;5047079;28;20064;-76
2022/11/23 06:40:11;;;;;;;14.57;6.50;;;;;;;7.49;100.00;99597.59;5045474;28;20032;-75
2022/11/23 06:42:36;;;;;;;15.20;6.00;;;;;;;7.47;100.00;99602.75;5041932;28;20040;-75
2022/11/23 06:45:02;;;;;;;19.05;6.05;;;;;;;7.46;100.00;99603.94;5043826;28;20032;-74
2022/11/23 06:47:28;;;;;;;20.10;7.85;;;;;;;7.47;100.00;99599.97;5036316;28;20028;-76
2022/11/23 06:49:53;;;;;;;12.88;5.45;;;;;;;7.46;100.00;99598.38;5034132;28;20061;-76
2022/11/23 06:52:19;;;;;;;12.68;6.18;;;;;;;7.51;100.00;99602.78;5039243;28;20065;-76
2022/11/23 06:54:44;;;;;;;12.95;5.35;;;;;;;7.47;100.00;99605.53;5033440;28;20201;-75
2022/11/23 06:57:10;;;;;;;14.63;5.60;;;;;;;7.49;100.00;99603.16;5035934;28;20028;-75
2022/11/23 06:59:35;;;;;;;18.63;6.00;;;;;;;7.42;100.00;99602.31;5038596;28;20033;-75
2022/11/23 07:02:00;;;;;;;16.65;6.57;;;;;;;7.52;100.00;99610.72;5035220;28;20120;-75
2022/11/23 07:04:28;;;;;;;19.48;6.28;;;;;;;7.46;100.00;99609.53;5032473;28;20037;-75
2022/11/23 07:06:54;;;;;;;16.08;5.57;;;;;;;7.51;100.00;99617.50;5036980;28;20171;-76
2022/11/23 07:09:19;;;;;;;16.77;5.88;;;;;;;7.54;100.00;99610.34;5038637;28;20443;-76
2022/11/23 07:11:44;;;;;;;10.57;5.10;;;;;;;7.56;100.00;99618.31;5039564;28;20561;-76
2022/11/23 07:14:10;;;;;;;15.95;6.72;;;;;;;8.26;100.00;99611.47;5061527;28;20029;-78
2022/11/23 07:16:36;;;;;;;12.32;5.50;;;;;;;8.13;100.00;99618.59;5061095;28;20530;-77
2022/11/23 07:19:01;;;;;;;19.00;6.85;;;;;;;7.87;100.00;99620.47;5064830;28;20454;-78
2022/11/23 07:21:26;;;;;;;21.70;6.38;;;;;;;7.70;100.00;99632.34;5060394;28;20043;-78
2022/11/23 07:23:52;;;;;;;21.38;6.85;;;;;;;7.83;100.00;99628.03;5057416;28;23140;-77
2022/11/23 07:26:17;;;;;;;18.58;6.75;;;;;;;7.72;100.00;99627.97;5061328;28;20032;-77
2022/11/23 07:28:43;;;;;;;13.57;5.45;;;;;;;7.75;100.00;99637.53;5054797;28;20123;-77
2022/11/23 07:31:08;;;;;;;14.38;5.78;;;;;;;7.71;100.00;99625.56;5058914;28;20036;-78
2022/11/23 07:33:33;;;;;;;16.73;7.25;;;;;;;7.66;100.00;99639.88;5060660;28;20383;-77
2022/11/23 07:36:02;;;;;;;18.65;5.28;;;;;;;7.69;100.00;99627.94;5058175;28;20056;-77
2022/11/23 07:38:28;;;;;;;13.15;5.47;;;;;;;7.65;100.00;99638.25;5043756;28;20024;-78
2022/11/23 07:40:54;;;;;;;15.18;5.85;;;;;;;7.69;100.00;99648.22;5063321;28;20052;-78
2022/11/23 07:43:19;;;;;;;13.45;4.60;;;;;;;7.68;100.00;99648.63;5048682;28;20024;-77
2022/11/23 07:45:44;;;;;;;9.48;5.63;;;;;;;7.67;100.00;99649.81;5060510;28;20039;-78
2022/11/23 07:48:11;;;;;;;16.40;5.00;;;;;;;7.73;100.00;99656.63;5058622;28;20024;-78
2022/11/23 07:50:37;;;;;;;14.07;6.63;;;;;;;7.63;100.00;99648.97;5057656;28;20502;-79
2022/11/23 07:53:05;;;;;;;16.45;5.07;;;;;;;7.67;100.00;99658.16;5061926;28;20079;-76
2022/11/23 07:55:31;;;;;;;13.57;4.95;;;;;;;7.70;100.00;99657.41;5066063;28;20039;-77
2022/11/23 07:57:57;;;;;;;12.25;5.32;;;;;;;7.65;100.00;99660.53;5066221;28;20518;-78
2022/11/23 08:00:24;;;;;;;20.20;6.13;;;;;;;7.65;100.00;99654.97;5058963;28;20028;-78
2022/11/23 08:02:49;;;;;;;18.00;6.25;;;;;;;7.65;100.00;99657.75;5054821;28;20488;-79
2022/11/23 08:05:15;;;;;;;19.25;6.18;;;;;;;7.59;100.00;99660.13;5059725;28;20073;-78
2022/11/23 08:07:40;;;;;;;14.18;4.95;;;;;;;7.61;100.00;99665.28;5045050;28;20029;-77
2022/11/23 08:10:06;;;;;;;17.10;5.25;;;;;;;7.57;100.00;99667.25;5057397;28;20392;-77
2022/11/23 08:12:31;;;;;;;10.38;4.95;;;;;;;7.60;100.00;99663.69;5060536;28;20114;-75
2022/11/23 08:14:57;;;;;;;14.75;5.28;;;;;;;7.56;100.00;99663.66;5043131;28;20088;-78
2022/11/23 08:17:22;;;;;;;12.60;4.80;;;;;;;7.49;100.00;99667.19;5059130;28;20475;-77
2022/11/23 08:19:47;;;;;;;15.60;5.07;;;;;;;7.52;100.00;99673.97;5059695;28;20033;-77
2022/11/23 08:22:13;;;;;;;8.20;5.70;;;;;;;7.53;100.00;99673.59;5038794;28;20060;-78
2022/11/23 08:24:38;;;;;;;13.32;5.28;;;;;;;7.50;100.00;99668.78;5056702;28;20041;-77
2022/11/23 08:27:03;;;;;;;19.17;5.03;;;;;;;7.52;100.00;99671.19;5056664;28;20031;-78
2022/11/23 08:29:29;;;;;;;24.52;5.70;;;;;;;7.52;100.00;99680.34;5044767;28;20099;-77
2022/11/23 08:31:55;;;;;;;22.50;7.78;;;;;;;7.52;100.00;99683.13;5039308;28;20082;-78
2022/11/23 08:34:20;;;;;;;17.20;5.63;;;;;;;7.49;100.00;99685.91;5043262;28;20032;-77
2022/11/23 08:36:47;;;;;;;14.52;6.63;;;;;;;7.56;100.00;99680.38;5058987;28;20286;-78
2022/11/23 08:39:13;;;;;;;20.45;5.47;;;;;;;7.62;100.00;99686.38;5059724;28;20040;-77
2022/11/23 08:41:39;;;;;;;21.45;6.95;;;;;;;7.62;100.00;99678.81;5037343;28;20029;-76
2022/11/23 08:44:05;;;;;;;10.57;4.57;;;;;;;7.65;100.00;99682.81;5037317;28;20032;-77
2022/11/23 08:46:31;;;;;;;14.98;4.82;;;;;;;7.83;100.00;99677.38;5058695;28;20041;-78
2022/11/23 08:48:57;;;;;;;22.10;6.85;;;;;;;7.78;100.00;99675.75;5064772;28;20572;-77
2022/11/23 08:51:22;;;;;;;15.57;6.13;;;;;;;7.77;100.00;99679.72;5060803;28;20107;-76
2022/11/23 08:53:48;;;;;;;19.00;5.60;;;;;;;7.76;100.00;99682.88;5046467;28;20326;-76
2022/11/23 08:56:14;;;;;;;15.70;5.57;;;;;;;7.82;100.00;99684.94;5040649;28;20035;-76
2022/11/23 08:58:39;;;;;;;15.07;5.13;;;;;;;7.77;100.00;99678.94;5062898;28;20411;-76
2022/11/23 09:01:13;;;;;;;20.65;5.80;;;;;;;7.77;100.00;99679.72;5059129;28;20032;-77
2022/11/23 09:03:39;;;;;;;12.00;5.60;;;;;;;7.74;100.00;99678.50;5062157;28;20025;-77
2022/11/23 09:06:05;;;;;;;24.48;4.95;;;;;;;7.67;100.00;99684.06;5041161;28;20043;-76
2022/11/23 09:08:30;;;;;;;15.70;4.45;;;;;;;7.69;100.00;99683.66;5061967;28;20053;-77
2022/11/23 09:11:04;;;;;;;13.75;4.80;;;;;;;7.67;100.00;99688.81;5063944;28;20107;-77
2022/11/23 09:13:30;;;;;;;18.15;5.35;;;;;;;7.63;100.00;99690.75;5062603;28;20408;-77
2022/11/23 09:15:57;;;;;;;19.50;4.88;;;;;;;7.62;100.00;99689.19;5068027;28;20046;-77
2022/11/23 09:18:23;;;;;;;19.08;5.22;;;;;;;7.65;100.00;99686.44;5066208;28;20029;-76
2022/11/23 09:20:48;;;;;;;18.63;4.68;;;;;;;7.67;100.00;99692.41;5067732;28;20028;-76
2022/11/23 09:23:14;;;;;;;17.05;4.68;;;;;;;7.65;100.00;99693.97;5066280;28;20056;-77
2022/11/23 09:25:40;;;;;;;15.93;5.53;;;;;;;7.64;100.00;99684.81;5067202;28;20119;-76
2022/11/23 09:28:05;;;;;;;22.27;4.65;;;;;;;7.62;100.00;99678.81;5059360;28;20058;-77
2022/11/23 09:30:31;;;;;;;14.60;4.35;;;;;;;7.62;100.00;99683.59;5060458;28;20395;-77
2022/11/23 09:32:56;;;;;;;16.80;5.30;;;;;;;7.59;100.00;99689.94;5056099;28;20032;-77
2022/11/23 09:35:22;;;;;;;15.13;4.75;;;;;;;7.67;100.00;99691.59;5045867;28;20024;-76
2022/11/23 09:37:53;;;;;;;16.88;4.68;;;;;;;7.64;100.00;99684.03;5064004;28;20127;-77
2022/11/23 09:40:18;;;;;;;15.73;4.88;;;;;;;7.70;100.00;99690.81;5057844;28;20061;-76
2022/11/23 09:43:26;;;;;;;14.60;4.72;;;;;;;7.69;100.00;99692.00;5058629;28;20064;-76
2022/11/23 09:45:54;;;;;;;17.10;4.63;;;;;;;7.74;100.00;99686.09;5046781;28;20029;-76
2022/11/23 09:48:34;;;;;;;14.07;4.40;;;;;;;7.83;100.00;99694.88;5060577;28;20302;-76
2022/11/23 09:51:06;;;;;;;18.00;4.47;;;;;;;7.83;100.00;99682.94;5040994;28;20132;-75
2022/11/23 09:53:34;;;;;;;18.92;4.07;;;;;;;7.82;100.00;99682.16;5047204;28;20111;-76
2022/11/23 09:56:00;;;;;;;16.00;5.38;;;;;;;7.83;100.00;99689.31;5067612;28;20494;-75
2022/11/23 09:58:35;;;;;;;16.30;3.88;;;;;;;7.78;100.00;99681.34;5063562;28;20433;-77
2022/11/23 10:01:06;;;;;;;13.88;3.92;;;;;;;7.86;100.00;99688.56;5062075;28;20025;-75
2022/11/23 10:03:35;;;;;;;13.63;4.63;;;;;;;7.88;100.00;99686.16;5058076;28;20025;-77
2022/11/23 10:06:19;;;;;;;13.65;3.75;;;;;;;7.87;100.00;99684.56;5058031;28;20477;-76
2022/11/23 10:09:06;;;;;;;16.02;3.65;;;;;;;7.89;100.00;99679.41;5062423;28;20033;-75
2022/11/23 10:11:40;;;;;;;13.48;3.60;;;;;;;7.93;100.00;99683.00;5066255;28;20117;-76
2022/11/23 10:14:15;;;;;;;11.60;3.05;;;;;;;8.01;100.00;99671.88;5065641;28;20036;-77
2022/11/23 10:17:21;;;;;;;11.70;3.05;;;;;;;8.08;100.00;99677.53;5047789;28;20535;-76
2022/11/23 10:20:01;;;;;;;16.25;2.95;;;;;;;8.09;100.00;99674.31;4970559;28;20046;-76
2022/11/23 10:22:44;;;;;;;14.00;3.42;;;;;;;8.13;100.00;99664.00;5041450;28;20051;-76
2022/11/23 10:25:16;;;;;;;19.23;3.80;;;;;;;8.28;100.00;99670.44;5047506;28;20259;-77
2022/11/23 10:27:44;;;;;;;17.85;4.20;;;;;;;8.37;100.00;99660.91;5061987;28;20233;-76
2022/11/23 10:30:15;;;;;;;15.23;3.50;;;;;;;8.46;100.00;99659.38;5063742;28;20032;-75
2022/11/23 10:32:43;;;;;;;27.08;4.22;;;;;;;8.41;100.00;99651.41;5065302;28;21142;-75
2022/11/23 10:35:22;;;;;;;22.80;4.78;;;;;;;8.43;100.00;99643.44;5053450;28;20035;-76
2022/11/23 10:37:47;;;;;;;26.02;4.60;;;;;;;8.43;100.00;99637.06;5037089;28;20375;-77
2022/11/23 10:40:20;;;;;;;19.88;4.78;;;;;;;8.37;100.00;99633.84;5046651;28;20029;-76
2022/11/23 10:43:13;;;;;;;13.38;4.93;;;;;;;8.38;100.00;99634.63;5069371;28;20583;-76
2022/11/23 10:45:38;;;;;;;16.73;3.85;;;;;;;8.44;100.00;99638.66;5067625;28;20035;-76
2022/11/23 10:48:04;;;;;;;14.07;3.38;;;;;;;8.44;100.00;99628.31;5050386;28;20029;-75
2022/11/23 10:50:36;;;;;;;12.20;4.03;;;;;;;8.51;100.00;99624.72;5067916;28;20048;-75
2022/11/23 10:53:04;;;;;;;23.58;4.85;;;;;;;8.57;100.00;99623.16;5039462;28;20032;-76
2022/11/23 10:55:45;;;;;;;9.98;3.47;;;;;;;8.60;100.00;99608.44;5066177;28;20078;-76
2022/11/23 10:58:43;;;;;;;14.23;4.32;;;;;;;8.57;100.00;99609.22;5041770;28;20496;-77
2022/11/23 11:01:15;;;;;;;17.88;4.07;;;;;;;8.65;100.00;99596.88;5066305;28;20101;-76
2022/11/23 11:03:40;;;;;;;12.02;4.43;;;;;;;8.69;100.00;99600.47;5063379;28;20036;-76
2022/11/23 11:06:06;;;;;;;13.13;4.85;;;;;;;8.64;100.00;99592.47;5061578;28;20047;-75
2022/11/23 11:08:46;;;;;;;10.80;2.97;;;;;;;8.72;100.00;99593.28;5060444;28;20051;-76
2022/11/23 11:11:30;;;;;;;13.15;3.35;;;;;;;8.68;100.00;99582.13;5045034;28;20074;-76
2022/11/23 11:14:12;;;;;;;13.23;3.15;;;;;;;8.66;100.00;99601.25;5044978;28;20276;-76
2022/11/23 11:16:46;;;;;;;12.15;4.30;;;;;;;8.72;100.00;99594.09;5061228;28;20387;-76
2022/11/23 11:19:27;;;;;;;15.85;2.97;;;;;;;8.77;100.00;99592.09;5066064;28;20033;-77
2022/11/23 11:21:53;;;;;;;18.98;3.25;;;;;;;8.80;100.00;99591.31;5064826;28;20020;-76
2022/11/23 11:24:32;;;;;;;12.77;3.15;;;;;;;8.68;100.00;99570.19;5045404;28;20024;-77
2022/11/23 11:27:00;;;;;;;13.38;3.53;;;;;;;8.65;100.00;99577.34;5059337;28;20028;-76
2022/11/23 11:29:47;;;;;;;13.75;3.38;;;;;;;8.62;100.00;99578.16;5042718;28;20020;-77
2022/11/23 11:32:36;;;;;;;12.60;2.80;;;;;;;8.69;99.18;99589.31;5056594;28;20147;-76
2022/11/23 11:35:19;;;;;;;10.70;3.65;;;;;;;8.70;99.77;99593.69;5038045;28;20036;-74
2022/11/23 11:37:48;;;;;;;9.82;3.00;;;;;;;8.75;98.28;99593.31;5039889;28;20514;-75
2022/11/23 11:40:32;;;;;;;17.90;4.10;;;;;;;8.84;99.11;99601.28;5061647;28;20475;-76
2022/11/23 11:43:13;;;;;;;11.43;3.70;;;;;;;8.91;97.00;99600.47;5059596;28;20024;-77
2022/11/23 11:45:48;;;;;;;9.82;3.30;;;;;;;8.89;97.24;99586.91;5046082;28;20020;-76
2022/11/23 11:48:27;;;;;;;12.18;2.70;;;;;;;8.91;97.36;99597.69;5056439;28;20036;-75
2022/11/23 11:50:56;;;;;;;15.85;3.35;;;;;;;8.91;97.75;99586.53;5060381;28;20505;-76
2022/11/23 11:53:32;;;;;;;11.27;2.22;;;;;;;8.92;96.88;99602.09;5063199;28;20028;-76
2022/11/23 11:56:06;;;;;;;16.17;3.83;;;;;;;8.83;98.50;99593.31;5039772;28;20028;-76
2022/11/23 11:58:35;;;;;;;19.13;3.10;;;;;;;8.82;96.80;99591.72;5055933;28;20028;-77
2022/11/23 12:01:20;;;;;;;10.45;3.55;;;;;;;8.89;97.65;99597.28;5058752;28;20040;-76
2022/11/23 12:03:51;;;;;;;13.88;2.55;;;;;;;8.84;96.90;99581.75;5052910;28;20487;-76
2022/11/23 12:06:28;;;;;;;9.75;2.72;;;;;;;8.88;95.58;99595.72;5060463;28;20036;-77
2022/11/23 12:09:02;;;;;;;20.70;2.63;;;;;;;8.85;96.72;99593.69;5060023;28;20395;-76
2022/11/23 12:11:27;;;;;;;18.75;5.00;;;;;;;8.90;96.27;99582.94;5033651;28;20082;-76
2022/11/23 12:14:01;;;;;;;12.05;3.33;;;;;;;8.86;94.15;99586.94;5059493;28;20028;-76
2022/11/23 12:16:29;;;;;;;12.30;2.15;;;;;;;8.85;95.41;99596.50;5058211;28;20440;-76
2022/11/23 12:19:16;;;;;;;9.68;1.95;;;;;;;8.83;95.06;99596.09;5035175;28;20059;-76
2022/11/23 12:22:04;;;;;;;17.27;3.10;;;;;;;8.99;93.54;99576.19;5060529;28;20116;-76
2022/11/23 12:24:56;;;;;;;10.45;2.38;;;;;;;8.93;93.03;99593.31;5054698;28;20040;-75
2022/11/23 12:27:44;;;;;;;10.35;2.03;;;;;;;8.92;94.80;99596.50;5057008;28;20480;-75
2022/11/23 12:30:19;;;;;;;6.50;2.38;;;;;;;8.97;93.29;99590.53;5056981;28;20361;-76
2022/11/23 12:32:54;;;;;;;8.82;2.63;;;;;;;8.97;92.85;99590.53;5057288;28;20259;-75
2022/11/23 12:35:53;;;;;;;10.38;2.38;;;;;;;8.96;92.97;99588.94;5061927;28;20487;-76
2022/11/23 12:38:54;;;;;;;9.95;2.85;;;;;;;9.06;94.43;99596.50;5061986;28;20037;-77
2022/11/23 12:41:29;;;;;;;8.63;2.88;;;;;;;8.94;94.55;99588.53;5045865;28;20021;-76
2022/11/23 12:44:06;;;;;;;10.95;2.58;;;;;;;8.97;92.73;99576.56;5065631;28;20024;-76
2022/11/23 12:46:43;;;;;;;14.20;2.85;;;;;;;9.01;94.20;99571.78;5044391;28;20418;-76
2022/11/23 12:49:31;;;;;;;12.00;2.53;;;;;;;8.98;93.38;99567.00;5040670;28;20535;-76
2022/11/23 12:52:26;;;;;;;11.02;2.50;;;;;;;9.01;93.31;99573.78;5061075;28;20025;-77
2022/11/23 12:55:22;;;;;;;8.20;2.20;;;;;;;9.10;92.50;99569.38;5063084;28;20388;-76
2022/11/23 12:57:57;;;;;;;9.32;2.22;;;;;;;9.13;93.35;99563.00;5062361;28;20077;-76
2022/11/23 13:00:27;;;;;;;8.27;4.00;;;;;;;9.14;89.84;99561.00;5062225;28;20042;-76
2022/11/23 13:02:55;;;;;;;12.52;2.55;;;;;;;9.15;90.88;99565.41;5062959;28;20071;-75
2022/11/23 13:05:42;;;;;;;15.52;3.05;;;;;;;9.16;90.23;99556.63;5064238;28;20097;-75
2022/11/23 13:08:19;;;;;;;12.07;2.28;;;;;;;9.08;91.37;99546.66;5054498;28;20030;-76
2022/11/23 13:11:12;;;;;;;7.80;2.80;;;;;;;9.08;91.30;99555.03;5060341;28;20032;-76
2022/11/23 13:14:02;;;;;;;6.05;1.75;;;;;;;8.98;92.27;99547.47;5061633;28;20145;-76
2022/11/23 13:16:41;;;;;;;13.88;2.65;;;;;;;9.06;92.36;99553.84;5043263;28;20070;-76
2022/11/23 13:19:47;;;;;;;8.40;2.00;;;;;;;9.03;92.93;99538.69;5061692;28;20081;-76
2022/11/23 13:22:19;;;;;;;8.75;2.38;;;;;;;9.06;92.48;99534.28;5052751;28;20036;-76
2022/11/23 13:25:09;;;;;;;10.93;2.60;;;;;;;9.04;91.38;99531.09;5061992;28;20032;-76
2022/11/23 13:27:43;;;;;;;6.95;2.83;;;;;;;9.00;92.03;99549.84;5040028;28;20501;-76
2022/11/23 13:30:22;;;;;;;9.23;2.33;;;;;;;8.95;91.29;99557.41;5058777;28;20024;-78
2022/11/23 13:32:55;;;;;;;17.42;2.65;;;;;;;8.92;91.85;99549.06;5054558;28;20025;-76
2022/11/23 13:35:20;;;;;;;11.27;2.42;;;;;;;8.93;91.44;99562.59;5056653;28;20549;-75
2022/11/23 13:37:54;;;;;;;7.75;3.63;;;;;;;8.95;90.28;99551.06;5057893;28;20399;-76
2022/11/23 13:40:27;;;;;;;9.68;2.28;;;;;;;8.95;91.42;99557.41;5057407;28;20206;-77
2022/11/23 13:42:56;;;;;;;8.43;2.05;;;;;;;8.84;91.19;99545.47;5056532;28;20366;-77
2022/11/23 13:45:28;;;;;;;10.50;2.47;;;;;;;8.87;91.69;99543.88;5061112;28;20079;-76
2022/11/23 13:48:21;;;;;;;10.52;2.47;;;;;;;8.84;92.31;99539.09;5039000;28;20433;-76
2022/11/23 13:50:46;;;;;;;11.52;3.25;;;;;;;8.79;92.02;99536.69;5044333;28;20163;-75
2022/11/23 13:53:34;;;;;;;10.77;3.08;;;;;;;8.80;92.83;99536.31;5036119;28;20113;-75
2022/11/23 13:56:28;;;;;;;12.75;2.45;;;;;;;8.80;91.78;99538.31;5052783;28;20684;-76
2022/11/23 13:59:23;;;;;;;10.82;2.30;;;;;;;8.76;90.44;99532.72;5030719;28;20021;-75
2022/11/23 14:02:07;;;;;;;7.22;2.00;;;;;;;8.78;92.91;99526.75;5042497;28;20598;-76
2022/11/23 14:04:40;;;;;;;10.00;2.00;;;;;;;8.68;92.61;99531.91;5055627;28;20740;-76
2022/11/23 14:07:28;;;;;;;9.95;2.17;;;;;;;8.67;93.21;99519.16;5046409;28;20701;-76
2022/11/23 14:10:02;;;;;;;11.35;3.58;;;;;;;8.62;93.10;99522.38;5067482;28;20040;-77
2022/11/23 14:12:52;;;;;;;8.85;2.80;;;;;;;8.61;94.04;99514.41;5060707;28;20052;-77
2022/11/23 14:15:27;;;;;;;15.73;4.50;;;;;;;8.62;93.34;99518.75;5064246;28;20480;-76
2022/11/23 14:18:17;;;;;;;8.93;2.25;;;;;;;8.61;92.18;99517.97;5062481;28;20035;-76
2022/11/23 14:21:17;;;;;;;12.85;2.95;;;;;;;8.62;92.54;99527.94;5062853;28;20483;-75
2022/11/23 14:24:04;;;;;;;9.60;2.53;;;;;;;8.56;93.47;99523.97;5060180;28;20032;-76
2022/11/23 14:26:29;;;;;;;7.80;2.42;;;;;;;8.58;93.21;99534.69;5043060;28;20089;-77
2022/11/23 14:29:26;;;;;;;4.63;1.67;;;;;;;8.59;93.22;99539.88;5057875;28;20036;-76
2022/11/23 14:32:08;;;;;;;6.40;2.88;;;;;;;8.59;92.43;99550.25;5068220;28;20428;-76
2022/11/23 14:34:47;;;;;;;14.05;3.15;;;;;;;8.58;92.83;99565.38;5057056;28;20071;-77
2022/11/23 14:37:35;;;;;;;7.40;2.83;;;;;;;8.57;92.68;99564.59;5066989;28;20031;-76
2022/11/23 14:40:35;;;;;;;12.60;2.35;;;;;;;8.61;92.56;99570.97;5044689;28;20036;-76
2022/11/23 14:43:01;;;;;;;9.05;2.17;;;;;;;8.55;93.08;99576.13;5057369;28;20025;-76
2022/11/23 14:45:30;;;;;;;10.23;2.60;;;;;;;8.58;92.98;99573.75;5044940;28;20040;-76
2022/11/23 14:47:55;;;;;;;12.45;3.00;;;;;;;8.56;92.90;99574.16;5050500;28;21388;-77
2022/11/23 14:50:28;;;;;;;12.70;2.83;;;;;;;8.58;93.17;99582.94;5063733;28;20372;-76
2022/11/23 14:52:57;;;;;;;13.02;2.83;;;;;;;8.59;94.37;99603.25;5061736;28;20021;-76
2022/11/23 14:55:25;;;;;;;10.55;2.30;;;;;;;8.54;95.19;99605.22;5065005;28;20031;-76
2022/11/23 14:57:56;;;;;;;17.60;4.93;;;;;;;8.52;95.90;99601.25;5063906;28;20031;-77
2022/11/23 15:00:27;;;;;;;7.75;2.15;;;;;;;8.49;97.02;99597.22;5056377;28;20043;-76
2022/11/23 15:02:54;;;;;;;12.57;3.22;;;;;;;8.40;98.76;99602.38;5058177;28;20031;-76
2022/11/23 15:05:30;;;;;;;13.15;3.15;;;;;;;8.38;100.00;99596.38;5064239;28;20498;-77
2022/11/23 15:07:58;;;;;;;10.48;2.83;;;;;;;8.28;100.00;99606.31;5046027;28;20048;-76
2022/11/23 15:10:29;;;;;;;11.70;2.28;;;;;;;8.25;100.00;99603.53;5064234;28;20042;-76
2022/11/23 15:12:54;;;;;;;12.73;3.70;;;;;;;8.20;100.00;99601.94;5060478;28;20051;-77
2022/11/23 15:15:23;;;;;;;12.55;3.08;;;;;;;8.21;100.00;99608.28;5067208;28;20016;-76
2022/11/23 15:17:59;;;;;;;10.75;2.50;;;;;;;8.20;100.00;99603.88;5055699;28;20021;-76
2022/11/23 15:20:32;;;;;;;19.40;3.17;;;;;;;8.13;100.00;99597.09;5060835;28;20032;-77
2022/11/23 15:23:02;;;;;;;7.20;2.55;;;;;;;8.12;100.00;99600.28;5067103;28;20035;-76
2022/11/23 15:25:28;;;;;;;6.35;2.70;;;;;;;8.06;100.00;99596.28;5063886;28;20037;-76
2022/11/23 15:27:54;;;;;;;9.85;3.90;;;;;;;8.10;100.00;99611.84;5064396;28;20031;-77
2022/11/23 15:30:25;;;;;;;12.60;2.97;;;;;;;8.09;100.00;99601.84;5048181;28;20460;-76
2022/11/23 15:32:56;;;;;;;10.85;2.83;;;;;;;8.06;100.00;99613.00;5063526;28;20480;-76
2022/11/23 15:35:27;;;;;;;10.85;2.63;;;;;;;8.04;100.00;99620.97;5057817;28;20321;-76
2022/11/23 15:37:52;;;;;;;5.75;2.65;;;;;;;8.08;100.00;99621.78;5060805;28;20085;-76
2022/11/23 15:40:18;;;;;;;8.07;3.42;;;;;;;8.02;100.00;99617.78;5061233;28;20036;-76
2022/11/23 15:42:46;;;;;;;6.38;2.75;;;;;;;8.25;100.00;99615.47;5057902;28;20025;-76
2022/11/23 15:45:37;;;;;;;7.97;1.90;;;;;;;8.18;100.00;99629.41;5051659;28;20058;-76
2022/11/23 15:48:05;;;;;;;10.50;2.88;;;;;;;8.00;100.00;99622.94;5050030;28;20024;-75
2022/11/23 15:50:30;;;;;;;8.73;2.97;;;;;;;7.97;100.00;99634.84;5053644;28;20071;-77
2022/11/23 15:52:59;;;;;;;15.85;4.55;;;;;;;7.97;100.00;99637.63;5055731;28;20570;-76
2022/11/23 15:55:25;;;;;;;8.68;4.05;;;;;;;7.98;100.00;99639.25;5062245;28;20036;-76
2022/11/23 15:57:52;;;;;;;9.98;3.97;;;;;;;7.94;100.00;99642.81;5052030;28;20774;-75
2022/11/23 16:00:24;;;;;;;13.80;4.25;;;;;;;7.90;100.00;99644.75;5065649;28;20480;-76
2022/11/23 16:02:49;;;;;;;22.17;10.27;;;;;;;7.82;100.00;99648.72;5059114;28;20052;-77
2022/11/23 16:05:16;;;;;;;10.07;4.60;;;;;;;7.82;100.00;99659.03;5040248;28;20464;-76
2022/11/23 16:07:53;;;;;;;17.33;5.05;;;;;;;7.90;100.00;99652.34;5056760;28;20036;-76
2022/11/23 16:10:24;;;;;;;14.15;6.60;;;;;;;7.91;100.00;99656.72;5032665;28;20494;-76
2022/11/23 16:12:52;;;;;;;12.15;4.60;;;;;;;7.82;100.00;99654.28;5055171;28;20048;-76
2022/11/23 16:15:36;;;;;;;5.68;3.58;;;;;;;7.81;100.00;99660.25;5040164;28;20036;-77
2022/11/23 16:18:23;;;;;;;12.48;5.03;;;;;;;7.78;100.00;99647.91;5055695;28;20032;-76
2022/11/23 16:21:13;;;;;;;11.95;6.07;;;;;;;7.69;100.00;99647.44;5029543;28;20068;-77
2022/11/23 16:23:44;;;;;;;7.40;5.03;;;;;;;7.70;100.00;99649.03;5061899;28;20653;-77
2022/11/23 16:26:10;;;;;;;12.68;5.18;;;;;;;7.87;100.00;99641.97;5035296;28;20089;-76
2022/11/23 16:28:38;;;;;;;7.13;3.88;;;;;;;7.71;100.00;99647.84;5059323;28;20075;-77
2022/11/23 16:31:03;;;;;;;10.45;4.32;;;;;;;7.64;100.00;99642.25;5060222;28;20028;-77
2022/11/23 16:33:29;;;;;;;8.82;4.05;;;;;;;7.68;100.00;99643.06;5059483;28;20031;-77
2022/11/23 16:35:55;;;;;;;12.80;4.43;;;;;;;7.68;100.00;99632.72;5042744;28;20484;-77
2022/11/23 16:38:22;;;;;;;10.13;3.60;;;;;;;7.68;100.00;99640.28;5060239;28;20021;-75
2022/11/23 16:40:47;;;;;;;9.45;3.78;;;;;;;7.68;100.00;99654.19;5038705;28;20127;-77
2022/11/23 16:43:14;;;;;;;9.07;4.32;;;;;;;7.62;100.00;99662.13;5059905;28;20036;-78
2022/11/23 16:45:43;;;;;;;11.70;4.28;;;;;;;7.74;100.00;99663.78;5034823;28;20483;-78
2022/11/23 16:48:41;;;;;;;10.07;6.03;;;;;;;7.90;100.00;99672.63;5057867;28;20099;-77
2022/11/23 16:51:09;;;;;;;15.02;6.97;;;;;;;7.69;100.00;99666.94;5003911;28;20595;-77
2022/11/23 16:53:35;;;;;;;10.35;5.80;;;;;;;7.54;100.00;99663.25;5053754;28;20089;-77
2022/11/23 16:56:02;;;;;;;9.95;4.70;;;;;;;7.61;100.00;99676.41;5040725;28;20426;-76
2022/11/23 16:58:33;;;;;;;13.75;4.60;;;;;;;7.66;100.00;99678.88;5058750;28;20888;-77
2022/11/23 17:01:00;;;;;;;14.70;5.65;;;;;;;7.66;100.00;99679.66;5052905;28;20054;-77
2022/11/23 17:03:25;;;;;;;9.93;5.50;;;;;;;7.58;100.00;99682.78;5055454;28;20029;-77
2022/11/23 17:05:51;;;;;;;12.75;6.93;;;;;;;7.58;100.00;99688.34;5060102;28;20040;-77
2022/11/23 17:08:16;;;;;;;10.48;5.07;;;;;;;7.59;100.00;99689.94;5052943;28;20037;-77
2022/11/23 17:10:42;;;;;;;15.25;5.60;;;;;;;7.60;100.00;99697.13;5056902;28;20039;-77
2022/11/23 17:13:19;;;;;;;11.45;6.60;;;;;;;7.53;100.00;99697.88;5055033;28;20120;-77
2022/11/23 17:15:44;;;;;;;13.07;6.22;;;;;;;7.49;100.00;99689.47;5041618;28;20044;-77
2022/11/23 17:18:14;;;;;;;7.35;5.50;;;;;;;7.62;100.00;99689.97;5037382;28;20640;-77
2022/11/23 17:20:40;;;;;;;15.00;6.53;;;;;;;7.64;100.00;99692.38;5056288;28;20025;-77
2022/11/23 17:23:06;;;;;;;9.98;5.18;;;;;;;7.57;100.00;99701.47;5057409;28;20032;-77
2022/11/23 17:25:33;;;;;;;7.68;5.57;;;;;;;7.58;100.00;99705.06;5053934;28;20040;-77
2022/11/23 17:28:00;;;;;;;13.10;6.13;;;;;;;7.46;100.00;99704.19;5049286;28;21596;-77
2022/11/23 17:30:26;;;;;;;14.15;5.00;;;;;;;7.57;100.00;99711.78;5036165;28;20553;-77
2022/11/23 17:32:52;;;;;;;18.42;9.40;;;;;;;7.82;100.00;99721.16;5037642;28;20810;-77
2022/11/23 17:35:17;;;;;;;17.15;9.85;;;;;;;7.63;100.00;99707.47;5050014;28;20056;-77
2022/11/23 17:37:43;;;;;;;12.90;6.05;;;;;;;7.57;100.00;99714.59;5053170;28;20055;-77
2022/11/23 17:40:16;;;;;;;12.20;6.63;;;;;;;7.53;100.00;99720.94;5037912;28;20504;-78
2022/11/23 17:42:42;;;;;;;10.85;6.22;;;;;;;7.57;100.00;99709.00;5057019;28;20094;-77
2022/11/23 17:45:08;;;;;;;12.60;8.07;;;;;;;7.52;100.00;99724.88;5057239;28;20037;-78
2022/11/23 17:47:33;;;;;;;14.45;8.52;;;;;;;7.63;100.00;99722.22;5055843;28;20055;-78
2022/11/23 17:49:59;;;;;;;19.60;9.10;;;;;;;7.56;100.00;99740.84;5055743;28;20495;-77
2022/11/23 17:52:24;;;;;;;11.60;6.45;;;;;;;7.56;100.00;99729.69;5056865;28;20028;-78
2022/11/23 17:54:50;;;;;;;11.45;4.57;;;;;;;7.56;100.00;99722.13;5058812;28;21874;-78
2022/11/23 17:57:24;;;;;;;11.50;4.78;;;;;;;7.56;100.00;99751.97;5042549;28;20119;-78